Hauptseite
METAR-TAF:

METAR-TAF

Flughäfen :

Bütgenbach, Belgien

Elsenborn

Breite: 50-28N, Länge: 006-11E, Höhe: 564 m

Beobachtung

Neuester Wetterbericht von vor 33 Minuten, um 08:25 UTC
Wind 6 kt aus Süd/Südwest
Temperatur 15°C
Luftfeuchtigkeit 100%
Luftdruck 999 hPa
Sichtweite 10 km oder mehr
Leichtregen

METAR: EBLB 280825Z AUTO 20006KT 9999 -RA BKN006/// BKN030/// OVC070/// 15/15 Q0999 YLO

Zeit: 10:58 (08:58 UTC)


TAF: fehlend

Wetterbeobachtungen und Prognosen von mehr als 4000 Flughäfen (METAR und TAF Bericht).

Die verfügbaren Stationen werden durch gelbe und rote Markierungen auf der Karte dargestellt.

Führen Sie die Maus auf sie, um den Namen der Station zu sehen.

Darauf klicken, um die Beobachtung von Wetterbeobachtungen und Prognosen zu sehen.

Um die Karte zu ändern : klicken Sie auf den grünen Tasten mit einem schwarzen Kreuz Zum Vergrößern, auf den grünen Button mit einem Gedankenstrich zu verkleinern, oder auf die grünen Pfeile für benachbarte Karten.


METAR-TAF: